CheckWX is a tool to help pilots better visualize weather data.  It is not intended as a substitute for an official pre-flight weather briefing.

19:56:13 UTC

KOLS TAF
Nogales International Airport
Nogales, Arizona, USA
KOLS 251720Z 2518/2618 20009KT P6SM SKC FM251900 20013G20KT P6SM SCT250 FM260300 19006KT P6SM FEW250 FM260600 VRB04KT P6SM FEW250

Jun-25@
18:00 UTC

Jun-25 @ 18:00 UTC

Jun-25@
19:00 UTC

Jun-25 @ 19:00 UTC

KOLS 251720Z 2518/2618 20009KT P6SM SKC

Expired

Wind
  • 200° at 9 KTS
Cloud Levels
  • Clear skies

Jun-25@
19:00 UTC

Jun-25 @ 19:00 UTC

Jun-26@
03:00 UTC

Jun-26 @ 03:00 UTC

FM251900 20013G20KT P6SM SCT250

From

From Standard forecast or significant change

Wind
  • 200° at 13 KTS
  • {Gusting to 20 KTS
Cloud Levels
  • Scattered at 25,000' AGL

Jun-26@
03:00 UTC

Jun-26 @ 03:00 UTC

Jun-26@
06:00 UTC

Jun-26 @ 06:00 UTC

FM260300 19006KT P6SM FEW250

From

From Standard forecast or significant change

Wind
  • 190° at 6 KTS
Cloud Levels
  • Few at 25,000' AGL

Jun-26@
06:00 UTC

Jun-26 @ 06:00 UTC

Jun-26@
18:00 UTC

Jun-26 @ 18:00 UTC

FM260600 VRB04KT P6SM FEW250

From

From Standard forecast or significant change

Wind
  • Variable at 4 KTS
Cloud Levels
  • Few at 25,000' AGL